Chignik Lagoon, Alaska
Current Conditions -  °F | °C
As of 11:56 AM on Saturday 20 Dec 2014 (Local Time) from PAJC Reporting Station
Overcast Overcast  
Wind Chill: 39°   Ceiling: 2800
Heat Index: 39°   Visibility: 10mi
Dew Point: 36°   Wind: 0mph
Humidity: 87%   Direction: NA
Pressure: 28.83"   Gusts: NA
Location:  56.28°N, 158.51°W
Report Text: PAJC 202056Z AUTO 00000KT 10SM BKN028 OVC035 04/02 A2883 RMK AO1 60004 52010
Loading
Personal Weather Stations






























Interactive Weather Map New forecast layout! Learn more

10-Day Weather Forecast

Advertisements
Track Severe Weather on mobile